Time;durP1;ratioP1;P1;durP2;ratioP2;P2;SDS_P1;SDS_P2;PMS_P1;PMS_P2;Temp;Humidity;BMP_temperature;BMP_pressure;BME280_temperature;BME280_humidity;BME280_pressure;Samples;Min_cycle;Max_cycle;Signal;HPM_P1;HPM_P2
2021/08/25 00:00:29;;;;;;;6.00;4.90;;;;;;;;;;5116018;28;20114;-70
2021/08/25 00:02:54;;;;;;;6.00;4.22;;;;;;;;;;5115948;28;20027;-70
2021/08/25 00:05:21;;;;;;;3.10;2.90;;;;;;;;;;5080720;28;20093;-71
2021/08/25 00:07:47;;;;;;;3.35;3.13;;;;;;;;;;5115332;28;20034;-70
2021/08/25 00:10:12;;;;;;;3.00;2.70;;;;;;;;;;5115666;28;20510;-71
2021/08/25 00:12:38;;;;;;;2.65;2.45;;;;;;;;;;5115660;28;20077;-69
2021/08/25 00:15:05;;;;;;;3.08;2.70;;;;;;;;;;5115445;28;20028;-70
2021/08/25 00:17:31;;;;;;;2.55;2.35;;;;;;;;;;5115445;28;20062;-70
2021/08/25 00:19:56;;;;;;;2.80;2.58;;;;;;;;;;5115215;28;20446;-70
2021/08/25 00:22:22;;;;;;;2.35;2.15;;;;;;;;;;5115381;28;20027;-69
2021/08/25 00:24:47;;;;;;;2.50;2.30;;;;;;;;;;5115525;28;20034;-68
2021/08/25 00:27:13;;;;;;;2.20;2.05;;;;;;;;;;5115036;28;20458;-69
2021/08/25 00:29:40;;;;;;;2.30;2.10;;;;;;;;;;5096870;28;20351;-69
2021/08/25 00:32:05;;;;;;;2.13;1.90;;;;;;;;;;5096899;28;20525;-69
2021/08/25 00:34:31;;;;;;;1.77;1.67;;;;;;;;;;5115170;28;20115;-70
2021/08/25 00:36:57;;;;;;;2.05;1.88;;;;;;;;;;5115233;28;20119;-70
2021/08/25 00:39:23;;;;;;;2.22;2.05;;;;;;;;;;5096936;28;20043;-71
2021/08/25 00:41:49;;;;;;;2.15;2.05;;;;;;;;;;5114779;28;20093;-70
2021/08/25 00:44:15;;;;;;;2.67;2.20;;;;;;;;;;5114316;28;20043;-69
2021/08/25 00:46:42;;;;;;;2.42;2.22;;;;;;;;;;5096615;28;20388;-69
2021/08/25 00:49:07;;;;;;;2.10;2.00;;;;;;;;;;5114821;28;20027;-70
2021/08/25 00:51:33;;;;;;;3.28;2.17;;;;;;;;;;5114727;28;20434;-72
2021/08/25 00:54:00;;;;;;;2.05;1.92;;;;;;;;;;5114945;28;20446;-71
2021/08/25 00:56:26;;;;;;;1.85;1.75;;;;;;;;;;5114869;28;20106;-71
2021/08/25 00:58:51;;;;;;;2.25;2.05;;;;;;;;;;5114747;28;20040;-66
2021/08/25 01:01:23;;;;;;;2.05;1.95;;;;;;;;;;5113824;28;20409;-66
2021/08/25 01:03:52;;;;;;;3.17;1.60;;;;;;;;;;5114761;28;20035;-70
2021/08/25 01:06:21;;;;;;;1.90;1.80;;;;;;;;;;5114341;28;20073;-70
2021/08/25 01:08:47;;;;;;;1.83;1.73;;;;;;;;;;5095935;28;20062;-70
2021/08/25 01:11:12;;;;;;;1.35;1.35;;;;;;;;;;5114213;28;20450;-71
2021/08/25 01:13:39;;;;;;;1.35;1.35;;;;;;;;;;5096450;28;20085;-71
2021/08/25 01:16:04;;;;;;;1.48;1.40;;;;;;;;;;5114433;28;20035;-70
2021/08/25 01:18:30;;;;;;;1.70;1.60;;;;;;;;;;5114330;28;20043;-71
2021/08/25 01:20:59;;;;;;;1.27;1.25;;;;;;;;;;5114274;28;20023;-71
2021/08/25 01:23:27;;;;;;;2.00;1.90;;;;;;;;;;5114316;28;20038;-71
2021/08/25 01:25:58;;;;;;;1.88;1.77;;;;;;;;;;5114120;28;20265;-70
2021/08/25 01:28:25;;;;;;;1.65;1.55;;;;;;;;;;5113909;28;20067;-70
2021/08/25 01:30:51;;;;;;;1.70;1.60;;;;;;;;;;5113994;28;20036;-71
2021/08/25 01:33:26;;;;;;;1.63;1.52;;;;;;;;;;5113969;28;20035;-71
2021/08/25 01:35:52;;;;;;;1.77;1.67;;;;;;;;;;5114350;28;20031;-66
2021/08/25 01:38:23;;;;;;;3.00;1.48;;;;;;;;;;5113503;28;20039;-66
2021/08/25 01:40:49;;;;;;;1.60;1.50;;;;;;;;;;5096220;28;20131;-65
2021/08/25 01:43:14;;;;;;;1.60;1.50;;;;;;;;;;5113786;28;20115;-68
2021/08/25 01:45:40;;;;;;;1.50;1.40;;;;;;;;;;5113908;28;20043;-68
2021/08/25 01:48:05;;;;;;;1.40;1.30;;;;;;;;;;5114170;28;20077;-68
2021/08/25 01:50:31;;;;;;;1.40;1.30;;;;;;;;;;5114195;28;20042;-68
2021/08/25 01:52:57;;;;;;;1.50;1.38;;;;;;;;;;5113636;28;20057;-68
2021/08/25 01:55:24;;;;;;;1.25;1.25;;;;;;;;;;5114155;28;20046;-68
2021/08/25 01:57:49;;;;;;;1.40;1.30;;;;;;;;;;5095198;28;20040;-68
2021/08/25 02:00:15;;;;;;;1.40;1.30;;;;;;;;;;5113825;28;20581;-67
2021/08/25 02:02:40;;;;;;;1.67;1.58;;;;;;;;;;5114009;28;20394;-67
2021/08/25 02:05:06;;;;;;;1.77;1.67;;;;;;;;;;5113741;28;20044;-71
2021/08/25 02:07:32;;;;;;;1.92;1.77;;;;;;;;;;5095474;28;20031;-71
2021/08/25 02:09:57;;;;;;;1.83;1.73;;;;;;;;;;5113356;28;20036;-71
2021/08/25 02:12:23;;;;;;;1.98;1.70;;;;;;;;;;5096502;28;20024;-71
2021/08/25 02:14:48;;;;;;;1.88;1.40;;;;;;;;;;5117555;28;20101;-71
2021/08/25 02:17:15;;;;;;;3.33;2.30;;;;;;;;;;5117629;28;20370;-70
2021/08/25 02:19:40;;;;;;;2.58;2.40;;;;;;;;;;5117468;28;20040;-71
2021/08/25 02:22:07;;;;;;;2.70;2.50;;;;;;;;;;5117900;28;20028;-68
2021/08/25 02:24:32;;;;;;;2.28;2.10;;;;;;;;;;5117472;28;20028;-68
2021/08/25 02:26:58;;;;;;;2.20;1.73;;;;;;;;;;5099531;28;20482;-68
2021/08/25 02:29:24;;;;;;;2.70;2.13;;;;;;;;;;5117822;28;20054;-69
2021/08/25 02:31:50;;;;;;;2.10;2.00;;;;;;;;;;5117642;28;20085;-70
2021/08/25 02:34:15;;;;;;;1.90;1.80;;;;;;;;;;5098986;28;20036;-70
2021/08/25 02:36:41;;;;;;;1.65;1.55;;;;;;;;;;5117772;28;20055;-70
2021/08/25 02:39:07;;;;;;;2.13;1.92;;;;;;;;;;5117326;28;20066;-71
2021/08/25 02:41:32;;;;;;;2.05;1.88;;;;;;;;;;5099046;28;20411;-70
2021/08/25 02:43:57;;;;;;;3.20;2.00;;;;;;;;;;5117272;28;20036;-71
2021/08/25 02:46:23;;;;;;;1.70;1.60;;;;;;;;;;5098896;28;20088;-70
2021/08/25 02:48:50;;;;;;;2.60;1.83;;;;;;;;;;5098995;28;20046;-70
2021/08/25 02:51:15;;;;;;;2.03;1.80;;;;;;;;;;5117414;28;20362;-70
2021/08/25 02:53:41;;;;;;;1.92;1.73;;;;;;;;;;5098771;28;20040;-70
2021/08/25 02:56:06;;;;;;;3.25;2.10;;;;;;;;;;5099017;28;20031;-70
2021/08/25 02:58:32;;;;;;;2.17;2.08;;;;;;;;;;5116374;28;20098;-70
2021/08/25 03:00:58;;;;;;;3.38;1.98;;;;;;;;;;5117155;28;20035;-69
2021/08/25 03:03:24;;;;;;;2.03;1.88;;;;;;;;;;5116291;28;20039;-69
2021/08/25 03:05:49;;;;;;;2.25;2.15;;;;;;;;;;5098371;28;20541;-69
2021/08/25 03:08:15;;;;;;;1.95;1.83;;;;;;;;;;5116514;28;20318;-70
2021/08/25 03:10:40;;;;;;;2.20;2.10;;;;;;;;;;5116501;28;20470;-70
2021/08/25 03:13:06;;;;;;;1.90;1.75;;;;;;;;;;5098608;28;20051;-70
2021/08/25 03:15:32;;;;;;;2.17;1.90;;;;;;;;;;5116614;28;20027;-69
2021/08/25 03:17:57;;;;;;;2.15;2.05;;;;;;;;;;5116583;28;20038;-66
2021/08/25 03:20:23;;;;;;;2.30;2.10;;;;;;;;;;5116812;28;20090;-66
2021/08/25 03:22:48;;;;;;;2.42;2.22;;;;;;;;;;5116383;28;20058;-66
2021/08/25 03:25:14;;;;;;;2.22;2.03;;;;;;;;;;5114950;28;20035;-66
2021/08/25 03:27:39;;;;;;;2.72;1.98;;;;;;;;;;5097927;28;20079;-66
2021/08/25 03:30:05;;;;;;;2.65;2.42;;;;;;;;;;5116274;28;20020;-66
2021/08/25 03:32:31;;;;;;;2.92;2.50;;;;;;;;;;5116484;28;20038;-66
2021/08/25 03:34:56;;;;;;;4.72;2.25;;;;;;;;;;5116230;28;20030;-67
2021/08/25 03:37:22;;;;;;;2.50;2.30;;;;;;;;;;5098004;28;20036;-66
2021/08/25 03:39:47;;;;;;;2.55;2.13;;;;;;;;;;5116086;28;20062;-66
2021/08/25 03:42:13;;;;;;;3.88;2.33;;;;;;;;;;5098040;28;20055;-66
2021/08/25 03:44:38;;;;;;;2.45;2.05;;;;;;;;;;5116093;28;20028;-70
2021/08/25 03:47:05;;;;;;;3.10;2.53;;;;;;;;;;5115986;28;20122;-69
2021/08/25 03:49:30;;;;;;;3.17;2.20;;;;;;;;;;5115885;28;20039;-70
2021/08/25 03:51:56;;;;;;;2.42;2.13;;;;;;;;;;5115896;28;20032;-69
2021/08/25 03:54:21;;;;;;;2.88;2.15;;;;;;;;;;5115923;28;20468;-70
2021/08/25 03:56:47;;;;;;;2.53;2.33;;;;;;;;;;5115520;28;20549;-69
2021/08/25 03:59:14;;;;;;;2.50;2.00;;;;;;;;;;5115044;28;20492;-72
2021/08/25 04:01:41;;;;;;;2.03;1.92;;;;;;;;;;5097434;28;20040;-62
2021/08/25 04:04:07;;;;;;;2.60;2.22;;;;;;;;;;5115629;28;20035;-62
2021/08/25 04:06:35;;;;;;;2.00;1.90;;;;;;;;;;5080363;28;20135;-62
2021/08/25 04:09:00;;;;;;;1.92;1.83;;;;;;;;;;5115363;28;20063;-63
2021/08/25 04:11:26;;;;;;;2.63;1.88;;;;;;;;;;5115286;28;20397;-62
2021/08/25 04:13:51;;;;;;;4.38;1.80;;;;;;;;;;5097135;28;20024;-62
2021/08/25 04:16:17;;;;;;;2.20;1.98;;;;;;;;;;5115367;28;20505;-63
2021/08/25 04:18:42;;;;;;;2.00;1.90;;;;;;;;;;5115239;28;20031;-63
2021/08/25 04:21:08;;;;;;;2.03;1.92;;;;;;;;;;5115140;28;20085;-63
2021/08/25 04:23:34;;;;;;;2.42;2.17;;;;;;;;;;5115337;28;20537;-73
2021/08/25 04:26:00;;;;;;;3.70;2.03;;;;;;;;;;5115290;28;20401;-72
2021/08/25 04:28:25;;;;;;;2.85;1.60;;;;;;;;;;5115298;28;20032;-73
2021/08/25 04:30:52;;;;;;;1.85;1.70;;;;;;;;;;5115186;28;20470;-73
2021/08/25 04:33:17;;;;;;;2.00;1.85;;;;;;;;;;5096812;28;20023;-73
2021/08/25 04:35:43;;;;;;;4.25;2.03;;;;;;;;;;5096738;28;20050;-73
2021/08/25 04:38:08;;;;;;;1.70;1.60;;;;;;;;;;5114963;28;20066;-74
2021/08/25 04:40:41;;;;;;;2.97;1.52;;;;;;;;;;5114923;28;20035;-73
2021/08/25 04:43:06;;;;;;;1.63;1.52;;;;;;;;;;5115241;28;20124;-73
2021/08/25 04:45:32;;;;;;;2.28;1.90;;;;;;;;;;5114567;28;20055;-73
2021/08/25 04:47:58;;;;;;;1.67;1.58;;;;;;;;;;5114470;28;20038;-74
2021/08/25 04:50:23;;;;;;;2.05;1.85;;;;;;;;;;5114527;28;20500;-74
2021/08/25 04:52:49;;;;;;;1.80;1.70;;;;;;;;;;5096222;28;20035;-74
2021/08/25 04:55:14;;;;;;;2.22;2.13;;;;;;;;;;5095845;28;20032;-73
2021/08/25 04:57:40;;;;;;;2.13;1.90;;;;;;;;;;5093952;28;20043;-72
2021/08/25 05:00:05;;;;;;;2.38;2.28;;;;;;;;;;5113483;28;20493;-72
2021/08/25 05:02:31;;;;;;;4.90;2.20;;;;;;;;;;5113132;28;20051;-73
2021/08/25 05:04:56;;;;;;;2.42;2.20;;;;;;;;;;5095429;28;20039;-73
2021/08/25 05:07:22;;;;;;;3.13;2.67;;;;;;;;;;5114133;28;20039;-73
2021/08/25 05:09:47;;;;;;;4.22;2.33;;;;;;;;;;5095935;28;20023;-73
2021/08/25 05:12:15;;;;;;;2.50;2.38;;;;;;;;;;5114083;28;20032;-75
2021/08/25 05:14:41;;;;;;;2.05;1.95;;;;;;;;;;5114176;28;20125;-73
2021/08/25 05:17:06;;;;;;;1.98;1.88;;;;;;;;;;5095274;28;20122;-73
2021/08/25 05:19:32;;;;;;;2.50;2.20;;;;;;;;;;5114000;28;20110;-74
2021/08/25 05:21:57;;;;;;;2.85;2.30;;;;;;;;;;5113949;28;20516;-73
2021/08/25 05:24:23;;;;;;;2.40;2.20;;;;;;;;;;5113953;28;20063;-73
2021/08/25 05:26:49;;;;;;;2.60;1.77;;;;;;;;;;5113940;28;20035;-73
2021/08/25 05:29:15;;;;;;;2.10;2.00;;;;;;;;;;5095572;28;20028;-73
2021/08/25 05:31:40;;;;;;;1.90;1.80;;;;;;;;;;5095610;28;20054;-72
2021/08/25 05:34:06;;;;;;;2.45;2.25;;;;;;;;;;5095520;28;20042;-73
2021/08/25 05:36:32;;;;;;;3.03;2.03;;;;;;;;;;5113718;28;20062;-73
2021/08/25 05:38:57;;;;;;;3.17;2.25;;;;;;;;;;5113720;28;20551;-73
2021/08/25 05:41:22;;;;;;;3.90;2.28;;;;;;;;;;5113688;28;20036;-70
2021/08/25 05:43:48;;;;;;;2.47;2.28;;;;;;;;;;5113654;28;20043;-72
2021/08/25 05:46:13;;;;;;;2.70;2.50;;;;;;;;;;5113584;28;20122;-72
2021/08/25 05:48:39;;;;;;;2.25;2.13;;;;;;;;;;5094931;28;20465;-72
2021/08/25 05:51:04;;;;;;;2.40;2.30;;;;;;;;;;5112728;28;20028;-72
2021/08/25 05:53:30;;;;;;;2.53;2.33;;;;;;;;;;5094466;28;20481;-72
2021/08/25 05:55:55;;;;;;;3.97;2.63;;;;;;;;;;5095525;28;20588;-72
2021/08/25 05:58:21;;;;;;;2.80;2.53;;;;;;;;;;5095046;28;20134;-73
2021/08/25 06:00:47;;;;;;;4.50;2.95;;;;;;;;;;5078510;28;20116;-73
2021/08/25 06:03:12;;;;;;;3.67;3.38;;;;;;;;;;5095283;28;20122;-72
2021/08/25 06:05:37;;;;;;;3.30;3.00;;;;;;;;;;5113510;28;20386;-72
2021/08/25 06:08:04;;;;;;;6.45;3.58;;;;;;;;;;5078136;28;20027;-72
2021/08/25 06:10:29;;;;;;;4.13;3.75;;;;;;;;;;5112955;28;20542;-72
2021/08/25 06:13:01;;;;;;;3.70;3.08;;;;;;;;;;5113766;28;20057;-72
2021/08/25 06:15:26;;;;;;;4.55;3.25;;;;;;;;;;5113345;28;20028;-72
2021/08/25 06:17:52;;;;;;;4.78;3.83;;;;;;;;;;5113428;28;20039;-72
2021/08/25 06:20:17;;;;;;;5.15;3.97;;;;;;;;;;5095400;28;20046;-72
2021/08/25 06:22:43;;;;;;;5.07;4.15;;;;;;;;;;5113394;28;20028;-72
2021/08/25 06:25:09;;;;;;;5.40;4.20;;;;;;;;;;5113404;28;20031;-72
2021/08/25 06:27:34;;;;;;;8.05;4.65;;;;;;;;;;5095106;28;20569;-72
2021/08/25 06:30:00;;;;;;;8.20;4.82;;;;;;;;;;5113338;28;20062;-72
2021/08/25 06:32:25;;;;;;;7.68;4.95;;;;;;;;;;5113151;28;20024;-72
2021/08/25 06:34:51;;;;;;;7.93;5.57;;;;;;;;;;5094891;28;20035;-72
2021/08/25 06:37:16;;;;;;;7.88;5.30;;;;;;;;;;5113271;28;20111;-72
2021/08/25 06:39:42;;;;;;;8.02;5.95;;;;;;;;;;5113106;28;20450;-72
2021/08/25 06:42:08;;;;;;;7.70;5.68;;;;;;;;;;5113132;28;20035;-72
2021/08/25 06:44:33;;;;;;;7.10;5.20;;;;;;;;;;5113109;28;20047;-72
2021/08/25 06:46:59;;;;;;;6.07;5.40;;;;;;;;;;5113078;28;20027;-72
2021/08/25 06:49:24;;;;;;;8.85;5.65;;;;;;;;;;5112908;28;20363;-72
2021/08/25 06:51:50;;;;;;;8.98;5.57;;;;;;;;;;5113122;28;20019;-72
2021/08/25 06:54:15;;;;;;;9.90;6.97;;;;;;;;;;5113059;28;20460;-72
2021/08/25 06:56:41;;;;;;;7.93;5.65;;;;;;;;;;5112997;28;20031;-72
2021/08/25 06:59:09;;;;;;;8.30;5.45;;;;;;;;;;5095039;28;20052;-72
2021/08/25 07:01:35;;;;;;;10.60;5.85;;;;;;;;;;5116721;28;20461;-72
2021/08/25 07:04:00;;;;;;;7.35;5.75;;;;;;;;;;5116308;28;20073;-72
2021/08/25 07:06:26;;;;;;;9.73;5.78;;;;;;;;;;5098467;28;20035;-71
2021/08/25 07:08:52;;;;;;;8.73;5.05;;;;;;;;;;5098270;28;20047;-72
2021/08/25 07:11:17;;;;;;;8.52;5.10;;;;;;;;;;5116603;28;20027;-63
2021/08/25 07:13:43;;;;;;;8.70;5.47;;;;;;;;;;5116404;28;20027;-63
2021/08/25 07:19:43;;;;;;;10.35;6.65;;;;;;;;;;5117134;28;20030;-63
2021/08/25 07:25:44;;;;;;;9.20;5.50;;;;;;;;;;5117254;28;20416;-63
2021/08/25 07:28:10;;;;;;;10.05;6.47;;;;;;;;;;5116315;28;20051;-63
2021/08/25 07:30:35;;;;;;;10.23;6.22;;;;;;;;;;5116408;28;20488;-63
2021/08/25 07:33:01;;;;;;;10.70;5.82;;;;;;;;;;5116311;28;20097;-63
2021/08/25 07:35:29;;;;;;;11.70;6.43;;;;;;;;;;5116333;28;20122;-63
2021/08/25 07:37:56;;;;;;;8.00;5.97;;;;;;;;;;5116251;28;20152;-63
2021/08/25 07:40:21;;;;;;;8.77;6.75;;;;;;;;;;5116086;28;20032;-62
2021/08/25 07:42:46;;;;;;;8.45;6.68;;;;;;;;;;5116133;28;20032;-62
2021/08/25 07:45:12;;;;;;;8.02;6.60;;;;;;;;;;5115900;28;20488;-62
2021/08/25 07:47:38;;;;;;;12.55;7.63;;;;;;;;;;5116100;28;20040;-63
2021/08/25 07:50:04;;;;;;;10.05;8.02;;;;;;;;;;5116403;28;20037;-63
2021/08/25 07:52:30;;;;;;;9.65;7.25;;;;;;;;;;5116020;28;20461;-62
2021/08/25 07:54:55;;;;;;;11.55;8.23;;;;;;;;;;5115919;28;20032;-62
2021/08/25 07:57:21;;;;;;;11.63;8.45;;;;;;;;;;5115417;28;20120;-62
2021/08/25 07:59:46;;;;;;;14.23;9.23;;;;;;;;;;5116299;28;20514;-62
2021/08/25 08:02:12;;;;;;;12.73;8.90;;;;;;;;;;5115679;28;20034;-62
2021/08/25 08:04:37;;;;;;;14.38;9.05;;;;;;;;;;5115672;28;20074;-62
2021/08/25 08:07:03;;;;;;;10.18;8.38;;;;;;;;;;5115840;28;20027;-63
2021/08/25 08:09:29;;;;;;;8.70;6.53;;;;;;;;;;5115733;28;20054;-63
2021/08/25 08:11:54;;;;;;;8.70;6.53;;;;;;;;;;5115321;28;20107;-63
2021/08/25 08:14:20;;;;;;;8.68;6.85;;;;;;;;;;5115385;28;20046;-62
2021/08/25 08:16:50;;;;;;;9.10;6.75;;;;;;;;;;5115398;28;20019;-66
2021/08/25 08:19:23;;;;;;;8.88;7.25;;;;;;;;;;5115595;28;20039;-66
2021/08/25 08:21:49;;;;;;;12.00;8.63;;;;;;;;;;5115424;28;20044;-66
2021/08/25 08:24:15;;;;;;;10.05;7.53;;;;;;;;;;5115590;28;20038;-66
2021/08/25 08:26:42;;;;;;;9.43;6.50;;;;;;;;;;5115169;28;20119;-66
2021/08/25 08:29:07;;;;;;;9.48;7.85;;;;;;;;;;5114424;28;20119;-66
2021/08/25 08:31:34;;;;;;;10.55;7.80;;;;;;;;;;5115376;28;20032;-66
2021/08/25 08:34:00;;;;;;;10.35;7.38;;;;;;;;;;5115287;28;20477;-66
2021/08/25 08:36:25;;;;;;;12.52;8.60;;;;;;;;;;5114778;28;20027;-66
2021/08/25 08:38:51;;;;;;;9.23;7.15;;;;;;;;;;5115527;28;20051;-66
2021/08/25 08:41:16;;;;;;;13.00;7.60;;;;;;;;;;5114644;28;20040;-66
2021/08/25 08:43:43;;;;;;;10.23;6.10;;;;;;;;;;5115023;28;20034;-62
2021/08/25 08:46:12;;;;;;;12.48;6.90;;;;;;;;;;5114536;28;20071;-62
2021/08/25 08:48:38;;;;;;;10.48;6.35;;;;;;;;;;5096393;28;20413;-62
2021/08/25 08:51:04;;;;;;;10.20;6.10;;;;;;;;;;5114576;28;20035;-62
2021/08/25 08:53:30;;;;;;;7.82;5.57;;;;;;;;;;5095970;28;20425;-63
2021/08/25 08:55:55;;;;;;;7.90;6.15;;;;;;;;;;5114751;28;20064;-62
2021/08/25 08:58:21;;;;;;;9.82;5.68;;;;;;;;;;5114025;28;20052;-62
2021/08/25 09:00:46;;;;;;;8.35;5.82;;;;;;;;;;5114361;28;20142;-62
2021/08/25 09:03:22;;;;;;;8.38;5.53;;;;;;;;;;5114639;28;20088;-63
2021/08/25 09:05:55;;;;;;;10.18;5.82;;;;;;;;;;5114534;28;20043;-66
2021/08/25 09:08:27;;;;;;;8.85;6.47;;;;;;;;;;5114248;28;20032;-66
2021/08/25 09:11:06;;;;;;;6.90;4.47;;;;;;;;;;5114817;28;20031;-66
2021/08/25 09:13:39;;;;;;;8.05;4.55;;;;;;;;;;5096084;28;20043;-66
2021/08/25 09:16:28;;;;;;;8.68;6.13;;;;;;;;;;5114304;28;20470;-66
2021/08/25 09:19:04;;;;;;;9.05;5.60;;;;;;;;;;5114301;28;20039;-66
2021/08/25 09:21:31;;;;;;;8.63;6.28;;;;;;;;;;5113969;28;20040;-66
2021/08/25 09:23:57;;;;;;;9.52;6.28;;;;;;;;;;5113850;28;20039;-66
2021/08/25 09:26:22;;;;;;;8.77;6.40;;;;;;;;;;5114439;28;20043;-66
2021/08/25 09:28:50;;;;;;;8.90;6.07;;;;;;;;;;5096098;28;20541;-66
2021/08/25 09:31:16;;;;;;;7.53;5.28;;;;;;;;;;5114081;28;20063;-66
2021/08/25 09:33:43;;;;;;;8.63;6.15;;;;;;;;;;5113952;28;20051;-66
2021/08/25 09:36:13;;;;;;;9.10;5.88;;;;;;;;;;5114349;28;20473;-66
2021/08/25 09:38:40;;;;;;;13.75;6.60;;;;;;;;;;5113933;28;20115;-67
2021/08/25 09:41:05;;;;;;;8.65;5.45;;;;;;;;;;5095808;28;20032;-66
2021/08/25 09:43:32;;;;;;;8.70;5.63;;;;;;;;;;5114271;28;20505;-65
2021/08/25 09:46:07;;;;;;;9.60;6.07;;;;;;;;;;5113585;28;20442;-66
2021/08/25 09:48:33;;;;;;;9.38;6.65;;;;;;;;;;5113842;28;20048;-66
2021/08/25 09:50:59;;;;;;;7.53;5.85;;;;;;;;;;5114155;28;20020;-66
2021/08/25 09:53:24;;;;;;;8.55;5.55;;;;;;;;;;5114419;28;20118;-66
2021/08/25 09:55:50;;;;;;;10.50;6.35;;;;;;;;;;5114178;28;20499;-66
2021/08/25 09:58:16;;;;;;;7.60;5.55;;;;;;;;;;5113518;28;20470;-63
2021/08/25 10:00:42;;;;;;;7.97;5.10;;;;;;;;;;5113860;28;20042;-62
2021/08/25 10:03:07;;;;;;;7.20;5.20;;;;;;;;;;5095548;28;20122;-62
2021/08/25 10:05:32;;;;;;;8.70;5.78;;;;;;;;;;5113680;28;20089;-62
2021/08/25 10:08:00;;;;;;;7.82;5.38;;;;;;;;;;5113415;28;20028;-62
2021/08/25 10:10:26;;;;;;;10.15;6.53;;;;;;;;;;5113459;28;20027;-62
2021/08/25 10:12:52;;;;;;;7.55;5.35;;;;;;;;;;5113806;28;20024;-62
2021/08/25 10:15:30;;;;;;;7.40;5.75;;;;;;;;;;5113676;28;20032;-62
2021/08/25 10:17:55;;;;;;;7.85;5.45;;;;;;;;;;5113665;28;20036;-62
2021/08/25 10:20:24;;;;;;;10.52;6.18;;;;;;;;;;5078464;28;20030;-62
2021/08/25 10:22:50;;;;;;;9.93;5.03;;;;;;;;;;5113534;28;20128;-63
2021/08/25 10:25:15;;;;;;;6.60;4.97;;;;;;;;;;5113852;28;20165;-62
2021/08/25 10:27:59;;;;;;;7.57;5.32;;;;;;;;;;5113195;28;20063;-62
2021/08/25 10:30:25;;;;;;;6.95;5.13;;;;;;;;;;5113633;28;20122;-62
2021/08/25 10:32:50;;;;;;;8.35;5.07;;;;;;;;;;5113235;28;20061;-62
2021/08/25 10:35:17;;;;;;;6.60;4.93;;;;;;;;;;5099141;28;20035;-62
2021/08/25 10:37:44;;;;;;;8.68;5.95;;;;;;;;;;5117390;28;20055;-63
2021/08/25 10:40:10;;;;;;;8.00;5.53;;;;;;;;;;5117047;28;20101;-62
2021/08/25 10:42:42;;;;;;;6.53;4.45;;;;;;;;;;5117388;28;20461;-62
2021/08/25 10:45:08;;;;;;;7.57;4.97;;;;;;;;;;5117022;28;20048;-63
2021/08/25 10:47:52;;;;;;;8.40;5.47;;;;;;;;;;5116793;28;20032;-62
2021/08/25 10:50:18;;;;;;;7.10;5.07;;;;;;;;;;5098991;28;20040;-62
2021/08/25 10:52:43;;;;;;;8.27;5.68;;;;;;;;;;5117115;28;20111;-62
2021/08/25 10:55:08;;;;;;;8.82;5.55;;;;;;;;;;5116819;28;20027;-63
2021/08/25 10:57:34;;;;;;;6.45;4.40;;;;;;;;;;5116457;28;20047;-66
2021/08/25 11:00:11;;;;;;;8.43;5.30;;;;;;;;;;5117300;28;20473;-67
2021/08/25 11:02:40;;;;;;;9.25;5.47;;;;;;;;;;5106791;28;20083;-67
2021/08/25 11:05:06;;;;;;;7.25;5.30;;;;;;;;;;5105063;28;20098;-66
2021/08/25 11:07:40;;;;;;;8.48;5.18;;;;;;;;;;5105913;28;20028;-66
2021/08/25 11:10:05;;;;;;;7.13;5.18;;;;;;;;;;5105155;28;20027;-64
2021/08/25 11:12:32;;;;;;;7.82;5.28;;;;;;;;;;5096754;28;20526;-64
2021/08/25 11:14:58;;;;;;;7.65;5.10;;;;;;;;;;5105972;28;20039;-65
2021/08/25 11:17:23;;;;;;;7.57;5.13;;;;;;;;;;5104579;28;20390;-65
2021/08/25 11:19:53;;;;;;;8.45;5.50;;;;;;;;;;5104517;28;20487;-65
2021/08/25 11:22:26;;;;;;;7.95;5.47;;;;;;;;;;5105991;28;20027;-68
2021/08/25 11:25:00;;;;;;;9.90;5.70;;;;;;;;;;5105568;28;20039;-69
2021/08/25 11:27:39;;;;;;;8.55;4.55;;;;;;;;;;5104595;28;20032;-68
2021/08/25 11:30:11;;;;;;;5.38;3.42;;;;;;;;;;5104364;28;20042;-68
2021/08/25 11:32:51;;;;;;;8.65;5.15;;;;;;;;;;5103385;28;20378;-68
2021/08/25 11:35:24;;;;;;;6.20;5.00;;;;;;;;;;5103471;28;20028;-68
2021/08/25 11:37:50;;;;;;;9.20;5.75;;;;;;;;;;5103950;28;20782;-68
2021/08/25 11:40:16;;;;;;;8.38;5.28;;;;;;;;;;5105546;28;20024;-68
2021/08/25 11:42:43;;;;;;;7.53;4.82;;;;;;;;;;5093815;28;20063;-68
2021/08/25 11:45:16;;;;;;;8.23;5.53;;;;;;;;;;5105269;28;20032;-68
2021/08/25 11:47:49;;;;;;;9.25;5.72;;;;;;;;;;5103392;28;20024;-67
2021/08/25 11:50:14;;;;;;;7.85;4.95;;;;;;;;;;5096897;28;20032;-66
2021/08/25 11:52:40;;;;;;;7.72;4.95;;;;;;;;;;5097300;28;20035;-67
2021/08/25 11:55:06;;;;;;;7.18;5.22;;;;;;;;;;5115968;28;20033;-67
2021/08/25 11:57:38;;;;;;;7.55;4.75;;;;;;;;;;5115979;28;20032;-67
2021/08/25 12:00:04;;;;;;;8.93;5.10;;;;;;;;;;5116468;28;20024;-67
2021/08/25 12:02:55;;;;;;;9.27;5.00;;;;;;;;;;5116038;28;20023;-67
2021/08/25 12:05:21;;;;;;;8.38;5.22;;;;;;;;;;5115842;28;20503;-66
2021/08/25 12:08:05;;;;;;;11.38;5.43;;;;;;;;;;5115340;28;20031;-67
2021/08/25 12:10:31;;;;;;;8.23;5.45;;;;;;;;;;5115579;28;20035;-67
2021/08/25 12:12:57;;;;;;;9.07;5.60;;;;;;;;;;5115988;28;20026;-67
2021/08/25 12:15:40;;;;;;;5.65;4.72;;;;;;;;;;5115739;28;20027;-66
2021/08/25 12:18:06;;;;;;;7.20;4.93;;;;;;;;;;5115736;28;20047;-66
2021/08/25 12:20:35;;;;;;;7.00;4.90;;;;;;;;;;5115415;28;20032;-67
2021/08/25 12:23:04;;;;;;;7.43;4.78;;;;;;;;;;5115383;28;20086;-67
2021/08/25 12:25:38;;;;;;;7.18;4.68;;;;;;;;;;5115666;28;20024;-67
2021/08/25 12:28:04;;;;;;;7.25;4.85;;;;;;;;;;5114863;28;20128;-67
2021/08/25 12:30:36;;;;;;;9.48;5.40;;;;;;;;;;5115850;28;20123;-67
2021/08/25 12:33:05;;;;;;;7.57;4.80;;;;;;;;;;5115235;28;20065;-67
2021/08/25 12:35:30;;;;;;;10.13;4.55;;;;;;;;;;5115151;28;20484;-67
2021/08/25 12:37:57;;;;;;;7.47;4.25;;;;;;;;;;5115465;28;20039;-67
2021/08/25 12:40:23;;;;;;;9.60;5.82;;;;;;;;;;5114770;28;20101;-67
2021/08/25 12:42:52;;;;;;;7.38;5.10;;;;;;;;;;5115610;28;20404;-67
2021/08/25 12:45:18;;;;;;;7.20;4.90;;;;;;;;;;5115169;28;20101;-67
2021/08/25 12:47:50;;;;;;;6.32;4.78;;;;;;;;;;5114960;28;20043;-67
2021/08/25 12:50:18;;;;;;;6.03;4.00;;;;;;;;;;5115317;28;20425;-67
2021/08/25 12:52:44;;;;;;;7.07;4.60;;;;;;;;;;5114968;28;20028;-67
2021/08/25 12:55:09;;;;;;;6.43;4.43;;;;;;;;;;5114903;28;20111;-67
2021/08/25 12:57:36;;;;;;;6.88;4.90;;;;;;;;;;5113256;28;20043;-67
2021/08/25 13:00:02;;;;;;;6.90;4.25;;;;;;;;;;5114729;28;20409;-67
2021/08/25 13:02:27;;;;;;;6.22;4.45;;;;;;;;;;5114819;28;20375;-67
2021/08/25 13:04:53;;;;;;;8.02;4.43;;;;;;;;;;5114518;28;20034;-67
2021/08/25 13:07:18;;;;;;;7.47;4.63;;;;;;;;;;5114460;28;20019;-67
2021/08/25 13:09:44;;;;;;;7.80;5.47;;;;;;;;;;5114378;28;20089;-67
2021/08/25 13:12:10;;;;;;;6.80;4.97;;;;;;;;;;5114716;28;20024;-66
2021/08/25 13:14:36;;;;;;;7.38;5.15;;;;;;;;;;5114598;28;20038;-66
2021/08/25 13:17:02;;;;;;;7.47;4.50;;;;;;;;;;5114723;28;20019;-66
2021/08/25 13:19:27;;;;;;;6.25;4.15;;;;;;;;;;5114208;28;20043;-66
2021/08/25 13:21:53;;;;;;;7.15;4.93;;;;;;;;;;5096363;28;20468;-66
2021/08/25 13:24:18;;;;;;;5.28;4.15;;;;;;;;;;5114297;28;20050;-66
2021/08/25 13:26:45;;;;;;;7.50;5.45;;;;;;;;;;5114122;28;20035;-66
2021/08/25 13:29:11;;;;;;;9.32;4.82;;;;;;;;;;5096024;28;20036;-66
2021/08/25 13:31:37;;;;;;;4.78;4.25;;;;;;;;;;5096231;28;20031;-66
2021/08/25 13:34:02;;;;;;;7.32;4.63;;;;;;;;;;5114855;28;20035;-66
2021/08/25 13:36:28;;;;;;;7.70;4.93;;;;;;;;;;5114370;28;20023;-67
2021/08/25 13:38:53;;;;;;;6.82;4.28;;;;;;;;;;5114222;28;20031;-67
2021/08/25 13:41:19;;;;;;;5.30;4.32;;;;;;;;;;5114161;28;20374;-67
2021/08/25 13:43:46;;;;;;;6.60;4.53;;;;;;;;;;5114538;28;20035;-67
2021/08/25 13:46:11;;;;;;;6.60;4.57;;;;;;;;;;5113973;28;20397;-67
2021/08/25 13:48:37;;;;;;;6.85;4.35;;;;;;;;;;5114142;28;20126;-67
2021/08/25 13:51:02;;;;;;;5.25;4.32;;;;;;;;;;5114117;28;20026;-67
2021/08/25 13:53:28;;;;;;;6.60;4.43;;;;;;;;;;5114365;28;20028;-67
2021/08/25 13:55:53;;;;;;;7.10;4.93;;;;;;;;;;5113870;28;20507;-67
2021/08/25 13:58:20;;;;;;;6.53;4.47;;;;;;;;;;5113306;28;20039;-67
2021/08/25 14:00:46;;;;;;;6.13;4.00;;;;;;;;;;5113974;28;20032;-67
2021/08/25 14:03:12;;;;;;;7.93;4.53;;;;;;;;;;5113986;28;20031;-66
2021/08/25 14:05:37;;;;;;;9.43;4.40;;;;;;;;;;5114023;28;20526;-67
2021/08/25 14:08:03;;;;;;;5.97;4.20;;;;;;;;;;5113946;28;20397;-67
2021/08/25 14:10:31;;;;;;;5.50;4.00;;;;;;;;;;5117864;28;20038;-66
2021/08/25 14:12:57;;;;;;;6.93;4.28;;;;;;;;;;5099561;28;20509;-66
2021/08/25 14:15:23;;;;;;;6.28;4.40;;;;;;;;;;5117240;28;20107;-67
2021/08/25 14:17:49;;;;;;;8.25;4.35;;;;;;;;;;5118146;28;20058;-67
2021/08/25 14:20:14;;;;;;;6.50;3.75;;;;;;;;;;5118432;28;20108;-67
2021/08/25 14:22:40;;;;;;;4.95;3.85;;;;;;;;;;5118116;28;20063;-67
2021/08/25 14:25:12;;;;;;;6.47;4.35;;;;;;;;;;5099601;28;20470;-67
2021/08/25 14:27:38;;;;;;;6.22;4.55;;;;;;;;;;5099439;28;20104;-67
2021/08/25 14:30:05;;;;;;;6.20;4.35;;;;;;;;;;5118161;28;20476;-66
2021/08/25 14:32:31;;;;;;;4.78;3.80;;;;;;;;;;5117803;28;20027;-66
2021/08/25 14:34:57;;;;;;;7.47;4.60;;;;;;;;;;5117750;28;20062;-67
2021/08/25 14:37:23;;;;;;;7.00;4.05;;;;;;;;;;5118116;28;20362;-67
2021/08/25 14:39:49;;;;;;;5.25;4.13;;;;;;;;;;5117345;28;20030;-67
2021/08/25 14:42:14;;;;;;;5.45;4.07;;;;;;;;;;5117299;28;20171;-67
2021/08/25 14:44:40;;;;;;;5.68;4.25;;;;;;;;;;5117386;28;20024;-67